sensor_id;sensor_type;location;lat;lon;timestamp;P1;durP1;ratioP1;P2;durP2;ratioP2
22675;SDS011;12521;43.310;21.876;2023-03-29T00:01:27;20.0;;;17.0;;
22675;SDS011;12521;43.310;21.876;2023-03-29T00:06:04;20.0;;;17.0;;
22675;SDS011;12521;43.310;21.876;2023-03-29T00:10:42;19.0;;;17.0;;
22675;SDS011;12521;43.310;21.876;2023-03-29T00:15:24;19.0;;;17.0;;
22675;SDS011;12521;43.310;21.876;2023-03-29T00:20:02;19.0;;;17.0;;
22675;SDS011;12521;43.310;21.876;2023-03-29T00:24:45;18.0;;;17.0;;
22675;SDS011;12521;43.310;21.876;2023-03-29T00:29:22;18.0;;;17.0;;
22675;SDS011;12521;43.310;21.876;2023-03-29T00:33:59;22.0;;;22.0;;
22675;SDS011;12521;43.310;21.876;2023-03-29T00:38:36;22.0;;;22.0;;
22675;SDS011;12521;43.310;21.876;2023-03-29T00:43:15;27.0;;;26.0;;
22675;SDS011;12521;43.310;21.876;2023-03-29T00:47:52;27.0;;;26.0;;
22675;SDS011;12521;43.310;21.876;2023-03-29T00:52:42;22.0;;;20.0;;
22675;SDS011;12521;43.310;21.876;2023-03-29T00:57:29;22.0;;;20.0;;
22675;SDS011;12521;43.310;21.876;2023-03-29T01:02:08;16.0;;;15.0;;
22675;SDS011;12521;43.310;21.876;2023-03-29T01:06:52;16.0;;;15.0;;
22675;SDS011;12521;43.310;21.876;2023-03-29T01:11:45;14.0;;;14.0;;
22675;SDS011;12521;43.310;21.876;2023-03-29T01:16:43;14.0;;;14.0;;
22675;SDS011;12521;43.310;21.876;2023-03-29T01:21:22;13.0;;;12.0;;
22675;SDS011;12521;43.310;21.876;2023-03-29T01:26:25;13.0;;;12.0;;
22675;SDS011;12521;43.310;21.876;2023-03-29T01:31:38;12.0;;;12.0;;
22675;SDS011;12521;43.310;21.876;2023-03-29T01:36:30;12.0;;;12.0;;
22675;SDS011;12521;43.310;21.876;2023-03-29T01:41:26;11.0;;;11.0;;
22675;SDS011;12521;43.310;21.876;2023-03-29T01:46:45;11.0;;;11.0;;
22675;SDS011;12521;43.310;21.876;2023-03-29T01:51:48;16.0;;;16.0;;
22675;SDS011;12521;43.310;21.876;2023-03-29T01:56:51;16.0;;;16.0;;
22675;SDS011;12521;43.310;21.876;2023-03-29T02:01:36;22.0;;;20.0;;
22675;SDS011;12521;43.310;21.876;2023-03-29T02:06:29;22.0;;;20.0;;
22675;SDS011;12521;43.310;21.876;2023-03-29T02:11:15;21.0;;;19.0;;
22675;SDS011;12521;43.310;21.876;2023-03-29T02:16:02;21.0;;;19.0;;
22675;SDS011;12521;43.310;21.876;2023-03-29T02:20:48;20.0;;;18.0;;
22675;SDS011;12521;43.310;21.876;2023-03-29T02:25:33;20.0;;;18.0;;
22675;SDS011;12521;43.310;21.876;2023-03-29T02:30:12;20.0;;;18.0;;
22675;SDS011;12521;43.310;21.876;2023-03-29T02:34:59;17.0;;;16.0;;
22675;SDS011;12521;43.310;21.876;2023-03-29T02:39:59;17.0;;;16.0;;
22675;SDS011;12521;43.310;21.876;2023-03-29T02:44:39;14.0;;;14.0;;
22675;SDS011;12521;43.310;21.876;2023-03-29T02:49:26;14.0;;;14.0;;
22675;SDS011;12521;43.310;21.876;2023-03-29T02:54:04;14.0;;;13.0;;
22675;SDS011;12521;43.310;21.876;2023-03-29T02:58:57;14.0;;;13.0;;
22675;SDS011;12521;43.310;21.876;2023-03-29T03:03:34;13.0;;;12.0;;
22675;SDS011;12521;43.310;21.876;2023-03-29T03:08:10;13.0;;;12.0;;
22675;SDS011;12521;43.310;21.876;2023-03-29T03:12:47;16.0;;;13.0;;
22675;SDS011;12521;43.310;21.876;2023-03-29T03:17:24;16.0;;;13.0;;
22675;SDS011;12521;43.310;21.876;2023-03-29T03:22:01;18.0;;;14.0;;
22675;SDS011;12521;43.310;21.876;2023-03-29T03:26:38;18.0;;;14.0;;
22675;SDS011;12521;43.310;21.876;2023-03-29T03:31:15;15.0;;;12.0;;
22675;SDS011;12521;43.310;21.876;2023-03-29T03:35:52;15.0;;;12.0;;
22675;SDS011;12521;43.310;21.876;2023-03-29T03:40:29;12.0;;;11.0;;
22675;SDS011;12521;43.310;21.876;2023-03-29T03:45:07;12.0;;;11.0;;
22675;SDS011;12521;43.310;21.876;2023-03-29T03:49:46;12.0;;;11.0;;
22675;SDS011;12521;43.310;21.876;2023-03-29T03:54:22;12.0;;;10.0;;
22675;SDS011;12521;43.310;21.876;2023-03-29T03:58:59;12.0;;;10.0;;
22675;SDS011;12521;43.310;21.876;2023-03-29T04:03:36;11.0;;;10.0;;
22675;SDS011;12521;43.310;21.876;2023-03-29T04:08:13;11.0;;;10.0;;
22675;SDS011;12521;43.310;21.876;2023-03-29T04:12:50;12.0;;;10.0;;
22675;SDS011;12521;43.310;21.876;2023-03-29T04:17:26;12.0;;;10.0;;
22675;SDS011;12521;43.310;21.876;2023-03-29T04:22:02;13.0;;;10.0;;
22675;SDS011;12521;43.310;21.876;2023-03-29T04:26:39;13.0;;;10.0;;
22675;SDS011;12521;43.310;21.876;2023-03-29T04:31:15;13.0;;;10.0;;
22675;SDS011;12521;43.310;21.876;2023-03-29T04:35:52;13.0;;;10.0;;
22675;SDS011;12521;43.310;21.876;2023-03-29T04:40:29;13.0;;;10.0;;
22675;SDS011;12521;43.310;21.876;2023-03-29T04:45:05;13.0;;;9.0;;
22675;SDS011;12521;43.310;21.876;2023-03-29T04:49:45;13.0;;;9.0;;
22675;SDS011;12521;43.310;21.876;2023-03-29T04:54:22;12.0;;;10.0;;
22675;SDS011;12521;43.310;21.876;2023-03-29T04:58:59;12.0;;;10.0;;
22675;SDS011;12521;43.310;21.876;2023-03-29T05:03:35;11.0;;;10.0;;
22675;SDS011;12521;43.310;21.876;2023-03-29T05:08:12;11.0;;;10.0;;
22675;SDS011;12521;43.310;21.876;2023-03-29T05:12:49;13.0;;;12.0;;
22675;SDS011;12521;43.310;21.876;2023-03-29T05:17:26;13.0;;;12.0;;
22675;SDS011;12521;43.310;21.876;2023-03-29T05:22:02;15.0;;;14.0;;
22675;SDS011;12521;43.310;21.876;2023-03-29T05:26:39;15.0;;;14.0;;
22675;SDS011;12521;43.310;21.876;2023-03-29T05:31:16;18.0;;;16.0;;
22675;SDS011;12521;43.310;21.876;2023-03-29T05:35:58;18.0;;;16.0;;
22675;SDS011;12521;43.310;21.876;2023-03-29T05:40:42;20.0;;;18.0;;
22675;SDS011;12521;43.310;21.876;2023-03-29T05:45:18;20.0;;;18.0;;
22675;SDS011;12521;43.310;21.876;2023-03-29T05:49:55;20.0;;;18.0;;
22675;SDS011;12521;43.310;21.876;2023-03-29T05:54:32;18.0;;;16.0;;
22675;SDS011;12521;43.310;21.876;2023-03-29T05:59:08;18.0;;;16.0;;
22675;SDS011;12521;43.310;21.876;2023-03-29T06:03:45;16.0;;;15.0;;
22675;SDS011;12521;43.310;21.876;2023-03-29T06:08:21;16.0;;;15.0;;
22675;SDS011;12521;43.310;21.876;2023-03-29T06:12:57;14.0;;;14.0;;
22675;SDS011;12521;43.310;21.876;2023-03-29T06:17:34;14.0;;;14.0;;
22675;SDS011;12521;43.310;21.876;2023-03-29T06:22:11;13.0;;;12.0;;
22675;SDS011;12521;43.310;21.876;2023-03-29T06:26:47;13.0;;;12.0;;
22675;SDS011;12521;43.310;21.876;2023-03-29T06:31:22;18.0;;;16.0;;
22675;SDS011;12521;43.310;21.876;2023-03-29T06:35:59;18.0;;;16.0;;
22675;SDS011;12521;43.310;21.876;2023-03-29T06:40:35;18.0;;;16.0;;
22675;SDS011;12521;43.310;21.876;2023-03-29T06:45:12;22.0;;;21.0;;
22675;SDS011;12521;43.310;21.876;2023-03-29T06:49:50;22.0;;;21.0;;
22675;SDS011;12521;43.310;21.876;2023-03-29T06:54:26;16.0;;;16.0;;
22675;SDS011;12521;43.310;21.876;2023-03-29T06:59:03;16.0;;;16.0;;
22675;SDS011;12521;43.310;21.876;2023-03-29T07:03:39;11.0;;;10.0;;
22675;SDS011;12521;43.310;21.876;2023-03-29T07:08:16;11.0;;;10.0;;
22675;SDS011;12521;43.310;21.876;2023-03-29T07:12:53;10.0;;;8.0;;
22675;SDS011;12521;43.310;21.876;2023-03-29T07:17:30;10.0;;;8.0;;
22675;SDS011;12521;43.310;21.876;2023-03-29T07:22:06;8.0;;;7.0;;
22675;SDS011;12521;43.310;21.876;2023-03-29T07:26:43;8.0;;;7.0;;
22675;SDS011;12521;43.310;21.876;2023-03-29T07:31:20;8.0;;;7.0;;
22675;SDS011;12521;43.310;21.876;2023-03-29T07:35:57;8.0;;;7.0;;
22675;SDS011;12521;43.310;21.876;2023-03-29T07:40:34;8.0;;;7.0;;
22675;SDS011;12521;43.310;21.876;2023-03-29T07:45:12;9.0;;;7.0;;
22675;SDS011;12521;43.310;21.876;2023-03-29T07:49:53;9.0;;;7.0;;
22675;SDS011;12521;43.310;21.876;2023-03-29T07:54:30;10.0;;;8.0;;
22675;SDS011;12521;43.310;21.876;2023-03-29T07:59:06;10.0;;;8.0;;
22675;SDS011;12521;43.310;21.876;2023-03-29T08:03:43;12.0;;;8.0;;
22675;SDS011;12521;43.310;21.876;2023-03-29T08:08:19;12.0;;;8.0;;
22675;SDS011;12521;43.310;21.876;2023-03-29T08:12:56;9.0;;;7.0;;
22675;SDS011;12521;43.310;21.876;2023-03-29T08:17:34;9.0;;;7.0;;
22675;SDS011;12521;43.310;21.876;2023-03-29T08:22:13;6.0;;;6.0;;
22675;SDS011;12521;43.310;21.876;2023-03-29T08:26:50;6.0;;;6.0;;
22675;SDS011;12521;43.310;21.876;2023-03-29T08:31:27;10.0;;;8.0;;
22675;SDS011;12521;43.310;21.876;2023-03-29T08:36:04;10.0;;;8.0;;
22675;SDS011;12521;43.310;21.876;2023-03-29T08:40:46;10.0;;;8.0;;
22675;SDS011;12521;43.310;21.876;2023-03-29T08:45:26;13.0;;;9.0;;
22675;SDS011;12521;43.310;21.876;2023-03-29T08:50:50;14.0;;;11.0;;
22675;SDS011;12521;43.310;21.876;2023-03-29T08:55:49;14.0;;;11.0;;
22675;SDS011;12521;43.310;21.876;2023-03-29T09:00:42;14.0;;;11.0;;
22675;SDS011;12521;43.310;21.876;2023-03-29T09:05:32;16.0;;;13.0;;
22675;SDS011;12521;43.310;21.876;2023-03-29T09:10:23;16.0;;;13.0;;
22675;SDS011;12521;43.310;21.876;2023-03-29T09:15:29;14.0;;;12.0;;
22675;SDS011;12521;43.310;21.876;2023-03-29T09:20:36;14.0;;;12.0;;
22675;SDS011;12521;43.310;21.876;2023-03-29T09:25:39;12.0;;;10.0;;
22675;SDS011;12521;43.310;21.876;2023-03-29T09:30:48;12.0;;;10.0;;
22675;SDS011;12521;43.310;21.876;2023-03-29T09:35:48;18.0;;;15.0;;
22675;SDS011;12521;43.310;21.876;2023-03-29T09:40:46;18.0;;;15.0;;
22675;SDS011;12521;43.310;21.876;2023-03-29T09:45:40;25.0;;;20.0;;
22675;SDS011;12521;43.310;21.876;2023-03-29T09:50:38;25.0;;;20.0;;
22675;SDS011;12521;43.310;21.876;2023-03-29T09:55:26;17.0;;;14.0;;
22675;SDS011;12521;43.310;21.876;2023-03-29T10:00:13;17.0;;;14.0;;
22675;SDS011;12521;43.310;21.876;2023-03-29T10:04:55;9.0;;;7.0;;
22675;SDS011;12521;43.310;21.876;2023-03-29T10:09:31;9.0;;;7.0;;
22675;SDS011;12521;43.310;21.876;2023-03-29T10:14:11;10.0;;;7.0;;
22675;SDS011;12521;43.310;21.876;2023-03-29T10:19:15;10.0;;;7.0;;
22675;SDS011;12521;43.310;21.876;2023-03-29T10:24:07;11.0;;;7.0;;
22675;SDS011;12521;43.310;21.876;2023-03-29T10:28:44;11.0;;;7.0;;
22675;SDS011;12521;43.310;21.876;2023-03-29T10:33:21;12.0;;;8.0;;
22675;SDS011;12521;43.310;21.876;2023-03-29T10:38:11;12.0;;;8.0;;
22675;SDS011;12521;43.310;21.876;2023-03-29T10:43:10;13.0;;;10.0;;
22675;SDS011;12521;43.310;21.876;2023-03-29T10:48:09;13.0;;;10.0;;
22675;SDS011;12521;43.310;21.876;2023-03-29T10:52:52;10.0;;;8.0;;
22675;SDS011;12521;43.310;21.876;2023-03-29T10:57:30;10.0;;;8.0;;
22675;SDS011;12521;43.310;21.876;2023-03-29T11:03:02;8.0;;;6.0;;
22675;SDS011;12521;43.310;21.876;2023-03-29T11:08:47;8.0;;;6.0;;
22675;SDS011;12521;43.310;21.876;2023-03-29T11:13:53;10.0;;;9.0;;
22675;SDS011;12521;43.310;21.876;2023-03-29T11:19:18;10.0;;;9.0;;
22675;SDS011;12521;43.310;21.876;2023-03-29T11:25:04;12.0;;;12.0;;
22675;SDS011;12521;43.310;21.876;2023-03-29T11:30:16;12.0;;;12.0;;
22675;SDS011;12521;43.310;21.876;2023-03-29T11:35:23;12.0;;;10.0;;
22675;SDS011;12521;43.310;21.876;2023-03-29T11:40:36;12.0;;;10.0;;
22675;SDS011;12521;43.310;21.876;2023-03-29T11:45:44;11.0;;;9.0;;
22675;SDS011;12521;43.310;21.876;2023-03-29T11:50:43;11.0;;;9.0;;
22675;SDS011;12521;43.310;21.876;2023-03-29T11:55:40;16.0;;;12.0;;
22675;SDS011;12521;43.310;21.876;2023-03-29T12:00:21;16.0;;;12.0;;
22675;SDS011;12521;43.310;21.876;2023-03-29T12:05:14;21.0;;;16.0;;
22675;SDS011;12521;43.310;21.876;2023-03-29T12:10:13;21.0;;;16.0;;
22675;SDS011;12521;43.310;21.876;2023-03-29T12:15:06;19.0;;;14.0;;
22675;SDS011;12521;43.310;21.876;2023-03-29T12:19:59;19.0;;;14.0;;
22675;SDS011;12521;43.310;21.876;2023-03-29T12:24:57;17.0;;;12.0;;
22675;SDS011;12521;43.310;21.876;2023-03-29T12:29:54;17.0;;;12.0;;
22675;SDS011;12521;43.310;21.876;2023-03-29T12:36:06;16.0;;;12.0;;
22675;SDS011;12521;43.310;21.876;2023-03-29T12:42:04;14.0;;;13.0;;
22675;SDS011;12521;43.310;21.876;2023-03-29T12:46:58;14.0;;;13.0;;
22675;SDS011;12521;43.310;21.876;2023-03-29T12:51:38;12.0;;;11.0;;
22675;SDS011;12521;43.310;21.876;2023-03-29T12:56:19;12.0;;;11.0;;
22675;SDS011;12521;43.310;21.876;2023-03-29T13:01:29;10.0;;;9.0;;
22675;SDS011;12521;43.310;21.876;2023-03-29T13:06:11;10.0;;;9.0;;
22675;SDS011;12521;43.310;21.876;2023-03-29T13:11:05;8.0;;;8.0;;
22675;SDS011;12521;43.310;21.876;2023-03-29T13:16:08;8.0;;;8.0;;
22675;SDS011;12521;43.310;21.876;2023-03-29T13:20:55;8.0;;;8.0;;
22675;SDS011;12521;43.310;21.876;2023-03-29T13:26:07;7.0;;;6.0;;
22675;SDS011;12521;43.310;21.876;2023-03-29T13:31:27;11.0;;;9.0;;
22675;SDS011;12521;43.310;21.876;2023-03-29T13:36:39;11.0;;;9.0;;
22675;SDS011;12521;43.310;21.876;2023-03-29T13:42:17;15.0;;;12.0;;
22675;SDS011;12521;43.310;21.876;2023-03-29T13:47:27;15.0;;;12.0;;
22675;SDS011;12521;43.310;21.876;2023-03-29T13:52:21;22.0;;;14.0;;
22675;SDS011;12521;43.310;21.876;2023-03-29T13:57:17;22.0;;;14.0;;
22675;SDS011;12521;43.310;21.876;2023-03-29T14:02:19;28.0;;;17.0;;
22675;SDS011;12521;43.310;21.876;2023-03-29T14:07:21;28.0;;;17.0;;
22675;SDS011;12521;43.310;21.876;2023-03-29T14:12:01;22.0;;;14.0;;
22675;SDS011;12521;43.310;21.876;2023-03-29T14:16:40;22.0;;;14.0;;
22675;SDS011;12521;43.310;21.876;2023-03-29T14:21:17;16.0;;;12.0;;
22675;SDS011;12521;43.310;21.876;2023-03-29T14:26:02;16.0;;;12.0;;
22675;SDS011;12521;43.310;21.876;2023-03-29T14:30:51;16.0;;;12.0;;
22675;SDS011;12521;43.310;21.876;2023-03-29T14:35:30;16.0;;;12.0;;
22675;SDS011;12521;43.310;21.876;2023-03-29T14:40:11;16.0;;;12.0;;
22675;SDS011;12521;43.310;21.876;2023-03-29T14:44:56;16.0;;;11.0;;
22675;SDS011;12521;43.310;21.876;2023-03-29T14:49:46;16.0;;;11.0;;
22675;SDS011;12521;43.310;21.876;2023-03-29T14:54:24;16.0;;;11.0;;
22675;SDS011;12521;43.310;21.876;2023-03-29T14:59:15;16.0;;;11.0;;
22675;SDS011;12521;43.310;21.876;2023-03-29T15:04:11;15.0;;;11.0;;
22675;SDS011;12521;43.310;21.876;2023-03-29T15:08:48;15.0;;;11.0;;
22675;SDS011;12521;43.310;21.876;2023-03-29T15:13:26;18.0;;;13.0;;
22675;SDS011;12521;43.310;21.876;2023-03-29T15:18:06;18.0;;;13.0;;
22675;SDS011;12521;43.310;21.876;2023-03-29T15:22:57;21.0;;;15.0;;
22675;SDS011;12521;43.310;21.876;2023-03-29T15:27:57;21.0;;;15.0;;
22675;SDS011;12521;43.310;21.876;2023-03-29T15:32:34;18.0;;;13.0;;
22675;SDS011;12521;43.310;21.876;2023-03-29T15:37:10;18.0;;;13.0;;
22675;SDS011;12521;43.310;21.876;2023-03-29T15:41:48;16.0;;;11.0;;
22675;SDS011;12521;43.310;21.876;2023-03-29T15:46:29;16.0;;;11.0;;
22675;SDS011;12521;43.310;21.876;2023-03-29T15:51:05;16.0;;;11.0;;
22675;SDS011;12521;43.310;21.876;2023-03-29T15:55:46;16.0;;;11.0;;
22675;SDS011;12521;43.310;21.876;2023-03-29T16:00:29;16.0;;;11.0;;
22675;SDS011;12521;43.310;21.876;2023-03-29T16:05:08;15.0;;;11.0;;
22675;SDS011;12521;43.310;21.876;2023-03-29T16:09:45;15.0;;;11.0;;
22675;SDS011;12521;43.310;21.876;2023-03-29T16:14:22;17.0;;;12.0;;
22675;SDS011;12521;43.310;21.876;2023-03-29T16:19:05;17.0;;;12.0;;
22675;SDS011;12521;43.310;21.876;2023-03-29T16:23:42;19.0;;;12.0;;
22675;SDS011;12521;43.310;21.876;2023-03-29T16:28:21;19.0;;;12.0;;
22675;SDS011;12521;43.310;21.876;2023-03-29T16:32:58;18.0;;;14.0;;
22675;SDS011;12521;43.310;21.876;2023-03-29T16:37:35;18.0;;;14.0;;
22675;SDS011;12521;43.310;21.876;2023-03-29T16:42:12;17.0;;;15.0;;
22675;SDS011;12521;43.310;21.876;2023-03-29T16:46:49;17.0;;;15.0;;
22675;SDS011;12521;43.310;21.876;2023-03-29T16:51:26;42.0;;;28.0;;
22675;SDS011;12521;43.310;21.876;2023-03-29T16:56:03;42.0;;;28.0;;
22675;SDS011;12521;43.310;21.876;2023-03-29T17:00:41;42.0;;;28.0;;
22675;SDS011;12521;43.310;21.876;2023-03-29T17:05:18;66.0;;;42.0;;
22675;SDS011;12521;43.310;21.876;2023-03-29T17:09:54;66.0;;;42.0;;
22675;SDS011;12521;43.310;21.876;2023-03-29T17:14:31;70.0;;;46.0;;
22675;SDS011;12521;43.310;21.876;2023-03-29T17:19:07;70.0;;;46.0;;
22675;SDS011;12521;43.310;21.876;2023-03-29T17:23:44;74.0;;;50.0;;
22675;SDS011;12521;43.310;21.876;2023-03-29T17:28:20;74.0;;;50.0;;
22675;SDS011;12521;43.310;21.876;2023-03-29T17:32:58;82.0;;;63.0;;
22675;SDS011;12521;43.310;21.876;2023-03-29T17:37:34;82.0;;;63.0;;
22675;SDS011;12521;43.310;21.876;2023-03-29T17:42:11;90.0;;;76.0;;
22675;SDS011;12521;43.310;21.876;2023-03-29T17:46:48;90.0;;;76.0;;
22675;SDS011;12521;43.310;21.876;2023-03-29T17:51:24;78.0;;;64.0;;
22675;SDS011;12521;43.310;21.876;2023-03-29T17:56:02;78.0;;;64.0;;
22675;SDS011;12521;43.310;21.876;2023-03-29T18:00:41;78.0;;;64.0;;
22675;SDS011;12521;43.310;21.876;2023-03-29T18:05:18;67.0;;;53.0;;
22675;SDS011;12521;43.310;21.876;2023-03-29T18:09:54;67.0;;;53.0;;
22675;SDS011;12521;43.310;21.876;2023-03-29T18:14:31;60.0;;;48.0;;
22675;SDS011;12521;43.310;21.876;2023-03-29T18:19:08;60.0;;;48.0;;
22675;SDS011;12521;43.310;21.876;2023-03-29T18:23:45;54.0;;;43.0;;
22675;SDS011;12521;43.310;21.876;2023-03-29T18:28:24;54.0;;;43.0;;
22675;SDS011;12521;43.310;21.876;2023-03-29T18:33:00;66.0;;;54.0;;
22675;SDS011;12521;43.310;21.876;2023-03-29T18:37:36;66.0;;;54.0;;
22675;SDS011;12521;43.310;21.876;2023-03-29T18:42:13;79.0;;;65.0;;
22675;SDS011;12521;43.310;21.876;2023-03-29T18:46:50;79.0;;;65.0;;
22675;SDS011;12521;43.310;21.876;2023-03-29T18:51:26;118.0;;;94.0;;
22675;SDS011;12521;43.310;21.876;2023-03-29T18:56:03;118.0;;;94.0;;
22675;SDS011;12521;43.310;21.876;2023-03-29T19:00:41;118.0;;;94.0;;
22675;SDS011;12521;43.310;21.876;2023-03-29T19:05:18;158.0;;;123.0;;
22675;SDS011;12521;43.310;21.876;2023-03-29T19:09:55;158.0;;;123.0;;
22675;SDS011;12521;43.310;21.876;2023-03-29T19:14:31;163.0;;;128.0;;
22675;SDS011;12521;43.310;21.876;2023-03-29T19:19:08;163.0;;;128.0;;
22675;SDS011;12521;43.310;21.876;2023-03-29T19:23:44;168.0;;;134.0;;
22675;SDS011;12521;43.310;21.876;2023-03-29T19:28:21;168.0;;;134.0;;
22675;SDS011;12521;43.310;21.876;2023-03-29T19:32:58;171.0;;;137.0;;
22675;SDS011;12521;43.310;21.876;2023-03-29T19:37:34;171.0;;;137.0;;
22675;SDS011;12521;43.310;21.876;2023-03-29T19:42:11;174.0;;;140.0;;
22675;SDS011;12521;43.310;21.876;2023-03-29T19:46:47;174.0;;;140.0;;
22675;SDS011;12521;43.310;21.876;2023-03-29T19:51:24;174.0;;;140.0;;
22675;SDS011;12521;43.310;21.876;2023-03-29T19:56:02;132.0;;;108.0;;
22675;SDS011;12521;43.310;21.876;2023-03-29T20:00:40;132.0;;;108.0;;
22675;SDS011;12521;43.310;21.876;2023-03-29T20:05:17;91.0;;;77.0;;
22675;SDS011;12521;43.310;21.876;2023-03-29T20:09:54;91.0;;;77.0;;
22675;SDS011;12521;43.310;21.876;2023-03-29T20:14:30;74.0;;;62.0;;
22675;SDS011;12521;43.310;21.876;2023-03-29T20:19:08;74.0;;;62.0;;
22675;SDS011;12521;43.310;21.876;2023-03-29T20:23:45;57.0;;;46.0;;
22675;SDS011;12521;43.310;21.876;2023-03-29T20:28:22;57.0;;;46.0;;
22675;SDS011;12521;43.310;21.876;2023-03-29T20:32:59;120.0;;;81.0;;
22675;SDS011;12521;43.310;21.876;2023-03-29T20:37:35;120.0;;;81.0;;
22675;SDS011;12521;43.310;21.876;2023-03-29T20:42:12;182.0;;;116.0;;
22675;SDS011;12521;43.310;21.876;2023-03-29T20:46:48;182.0;;;116.0;;
22675;SDS011;12521;43.310;21.876;2023-03-29T20:51:23;182.0;;;116.0;;
22675;SDS011;12521;43.310;21.876;2023-03-29T20:56:00;132.0;;;92.0;;
22675;SDS011;12521;43.310;21.876;2023-03-29T21:00:36;132.0;;;92.0;;
22675;SDS011;12521;43.310;21.876;2023-03-29T21:05:12;81.0;;;67.0;;
22675;SDS011;12521;43.310;21.876;2023-03-29T21:09:48;81.0;;;67.0;;
22675;SDS011;12521;43.310;21.876;2023-03-29T21:14:24;73.0;;;61.0;;
22675;SDS011;12521;43.310;21.876;2023-03-29T21:19:01;73.0;;;61.0;;
22675;SDS011;12521;43.310;21.876;2023-03-29T21:23:38;65.0;;;55.0;;
22675;SDS011;12521;43.310;21.876;2023-03-29T21:28:14;65.0;;;55.0;;
22675;SDS011;12521;43.310;21.876;2023-03-29T21:32:51;76.0;;;56.0;;
22675;SDS011;12521;43.310;21.876;2023-03-29T21:37:28;76.0;;;56.0;;
22675;SDS011;12521;43.310;21.876;2023-03-29T21:42:05;87.0;;;58.0;;
22675;SDS011;12521;43.310;21.876;2023-03-29T21:46:42;87.0;;;58.0;;
22675;SDS011;12521;43.310;21.876;2023-03-29T21:51:20;87.0;;;58.0;;
22675;SDS011;12521;43.310;21.876;2023-03-29T21:55:57;77.0;;;54.0;;
22675;SDS011;12521;43.310;21.876;2023-03-29T22:00:34;77.0;;;54.0;;
22675;SDS011;12521;43.310;21.876;2023-03-29T22:05:11;67.0;;;49.0;;
22675;SDS011;12521;43.310;21.876;2023-03-29T22:09:47;67.0;;;49.0;;
22675;SDS011;12521;43.310;21.876;2023-03-29T22:14:23;68.0;;;50.0;;
22675;SDS011;12521;43.310;21.876;2023-03-29T22:18:59;68.0;;;50.0;;
22675;SDS011;12521;43.310;21.876;2023-03-29T22:23:35;68.0;;;51.0;;
22675;SDS011;12521;43.310;21.876;2023-03-29T22:28:11;68.0;;;51.0;;
22675;SDS011;12521;43.310;21.876;2023-03-29T22:32:48;75.0;;;54.0;;
22675;SDS011;12521;43.310;21.876;2023-03-29T22:37:24;75.0;;;54.0;;
22675;SDS011;12521;43.310;21.876;2023-03-29T22:42:01;82.0;;;56.0;;
22675;SDS011;12521;43.310;21.876;2023-03-29T22:46:38;82.0;;;56.0;;
22675;SDS011;12521;43.310;21.876;2023-03-29T22:51:14;82.0;;;56.0;;
22675;SDS011;12521;43.310;21.876;2023-03-29T22:55:52;80.0;;;54.0;;
22675;SDS011;12521;43.310;21.876;2023-03-29T23:00:30;80.0;;;54.0;;
22675;SDS011;12521;43.310;21.876;2023-03-29T23:05:08;79.0;;;53.0;;
22675;SDS011;12521;43.310;21.876;2023-03-29T23:09:44;79.0;;;53.0;;
22675;SDS011;12521;43.310;21.876;2023-03-29T23:14:21;75.0;;;56.0;;
22675;SDS011;12521;43.310;21.876;2023-03-29T23:18:57;75.0;;;56.0;;
22675;SDS011;12521;43.310;21.876;2023-03-29T23:23:34;71.0;;;60.0;;
22675;SDS011;12521;43.310;21.876;2023-03-29T23:28:11;71.0;;;60.0;;
22675;SDS011;12521;43.310;21.876;2023-03-29T23:32:49;71.0;;;56.0;;
22675;SDS011;12521;43.310;21.876;2023-03-29T23:37:26;71.0;;;56.0;;
22675;SDS011;12521;43.310;21.876;2023-03-29T23:42:02;71.0;;;52.0;;
22675;SDS011;12521;43.310;21.876;2023-03-29T23:46:39;71.0;;;52.0;;
22675;SDS011;12521;43.310;21.876;2023-03-29T23:51:15;71.0;;;52.0;;
22675;SDS011;12521;43.310;21.876;2023-03-29T23:55:54;51.0;;;39.0;;
